sensor_id;sensor_type;location;lat;lon;timestamp;P1;durP1;ratioP1;P2;durP2;ratioP2
22260;SDS011;11299;43.202;27.920;2023-04-25T00:02:12;16.25;;;7.88;;
22260;SDS011;11299;43.202;27.920;2023-04-25T00:04:37;15.23;;;7.60;;
22260;SDS011;11299;43.202;27.920;2023-04-25T00:07:03;17.80;;;7.70;;
22260;SDS011;11299;43.202;27.920;2023-04-25T00:09:28;20.50;;;7.65;;
22260;SDS011;11299;43.202;27.920;2023-04-25T00:11:54;19.98;;;7.80;;
22260;SDS011;11299;43.202;27.920;2023-04-25T00:14:20;16.35;;;7.63;;
22260;SDS011;11299;43.202;27.920;2023-04-25T00:16:45;22.17;;;8.85;;
22260;SDS011;11299;43.202;27.920;2023-04-25T00:19:11;21.50;;;7.93;;
22260;SDS011;11299;43.202;27.920;2023-04-25T00:21:36;20.67;;;8.40;;
22260;SDS011;11299;43.202;27.920;2023-04-25T00:24:05;18.77;;;6.97;;
22260;SDS011;11299;43.202;27.920;2023-04-25T00:26:31;16.77;;;8.70;;
22260;SDS011;11299;43.202;27.920;2023-04-25T00:28:58;18.08;;;7.95;;
22260;SDS011;11299;43.202;27.920;2023-04-25T00:31:23;21.08;;;8.77;;
22260;SDS011;11299;43.202;27.920;2023-04-25T00:33:49;17.83;;;7.95;;
22260;SDS011;11299;43.202;27.920;2023-04-25T00:36:14;16.00;;;7.45;;
22260;SDS011;11299;43.202;27.920;2023-04-25T00:38:40;16.60;;;8.23;;
22260;SDS011;11299;43.202;27.920;2023-04-25T00:41:05;21.48;;;8.20;;
22260;SDS011;11299;43.202;27.920;2023-04-25T00:43:32;17.67;;;7.43;;
22260;SDS011;11299;43.202;27.920;2023-04-25T00:45:59;21.08;;;7.50;;
22260;SDS011;11299;43.202;27.920;2023-04-25T00:48:26;16.30;;;6.75;;
22260;SDS011;11299;43.202;27.920;2023-04-25T00:50:52;21.77;;;8.48;;
22260;SDS011;11299;43.202;27.920;2023-04-25T00:53:19;20.02;;;8.20;;
22260;SDS011;11299;43.202;27.920;2023-04-25T00:55:48;26.88;;;9.50;;
22260;SDS011;11299;43.202;27.920;2023-04-25T00:58:17;17.77;;;7.70;;
22260;SDS011;11299;43.202;27.920;2023-04-25T01:00:44;21.80;;;8.15;;
22260;SDS011;11299;43.202;27.920;2023-04-25T01:03:11;17.70;;;8.75;;
22260;SDS011;11299;43.202;27.920;2023-04-25T01:05:38;22.25;;;7.88;;
22260;SDS011;11299;43.202;27.920;2023-04-25T01:08:06;22.20;;;8.98;;
22260;SDS011;11299;43.202;27.920;2023-04-25T01:10:32;20.08;;;8.98;;
22260;SDS011;11299;43.202;27.920;2023-04-25T01:12:57;19.95;;;9.68;;
22260;SDS011;11299;43.202;27.920;2023-04-25T01:15:23;25.55;;;9.02;;
22260;SDS011;11299;43.202;27.920;2023-04-25T01:17:49;18.42;;;9.13;;
22260;SDS011;11299;43.202;27.920;2023-04-25T01:20:14;28.10;;;9.95;;
22260;SDS011;11299;43.202;27.920;2023-04-25T01:22:41;26.17;;;8.68;;
22260;SDS011;11299;43.202;27.920;2023-04-25T01:25:07;22.15;;;8.68;;
22260;SDS011;11299;43.202;27.920;2023-04-25T01:27:33;23.20;;;7.82;;
22260;SDS011;11299;43.202;27.920;2023-04-25T01:30:00;28.63;;;8.38;;
22260;SDS011;11299;43.202;27.920;2023-04-25T01:32:26;21.63;;;8.18;;
22260;SDS011;11299;43.202;27.920;2023-04-25T01:34:51;23.67;;;9.13;;
22260;SDS011;11299;43.202;27.920;2023-04-25T01:37:17;17.27;;;7.70;;
22260;SDS011;11299;43.202;27.920;2023-04-25T01:39:43;16.02;;;7.50;;
22260;SDS011;11299;43.202;27.920;2023-04-25T01:42:09;18.67;;;7.70;;
22260;SDS011;11299;43.202;27.920;2023-04-25T01:44:34;22.20;;;8.07;;
22260;SDS011;11299;43.202;27.920;2023-04-25T01:47:00;21.63;;;8.52;;
22260;SDS011;11299;43.202;27.920;2023-04-25T01:49:25;19.30;;;7.93;;
22260;SDS011;11299;43.202;27.920;2023-04-25T01:51:51;15.20;;;7.47;;
22260;SDS011;11299;43.202;27.920;2023-04-25T01:54:16;24.15;;;8.38;;
22260;SDS011;11299;43.202;27.920;2023-04-25T01:56:43;22.77;;;8.25;;
22260;SDS011;11299;43.202;27.920;2023-04-25T01:59:09;21.33;;;8.02;;
22260;SDS011;11299;43.202;27.920;2023-04-25T02:01:34;26.08;;;8.50;;
22260;SDS011;11299;43.202;27.920;2023-04-25T02:03:59;24.63;;;8.63;;
22260;SDS011;11299;43.202;27.920;2023-04-25T02:06:25;20.70;;;8.70;;
22260;SDS011;11299;43.202;27.920;2023-04-25T02:08:51;25.83;;;8.38;;
22260;SDS011;11299;43.202;27.920;2023-04-25T02:11:16;21.25;;;8.18;;
22260;SDS011;11299;43.202;27.920;2023-04-25T02:13:41;17.95;;;8.43;;
22260;SDS011;11299;43.202;27.920;2023-04-25T02:16:07;18.85;;;7.78;;
22260;SDS011;11299;43.202;27.920;2023-04-25T02:18:32;18.30;;;7.95;;
22260;SDS011;11299;43.202;27.920;2023-04-25T02:20:59;17.75;;;7.40;;
22260;SDS011;11299;43.202;27.920;2023-04-25T02:23:26;19.38;;;8.27;;
22260;SDS011;11299;43.202;27.920;2023-04-25T02:25:51;22.45;;;8.48;;
22260;SDS011;11299;43.202;27.920;2023-04-25T02:28:17;30.13;;;9.27;;
22260;SDS011;11299;43.202;27.920;2023-04-25T02:30:43;23.15;;;8.57;;
22260;SDS011;11299;43.202;27.920;2023-04-25T02:33:08;25.83;;;8.85;;
22260;SDS011;11299;43.202;27.920;2023-04-25T02:35:34;18.90;;;13.15;;
22260;SDS011;11299;43.202;27.920;2023-04-25T02:37:59;22.38;;;8.88;;
22260;SDS011;11299;43.202;27.920;2023-04-25T02:40:25;28.17;;;7.97;;
22260;SDS011;11299;43.202;27.920;2023-04-25T02:42:50;20.75;;;8.55;;
22260;SDS011;11299;43.202;27.920;2023-04-25T02:45:16;28.98;;;10.15;;
22260;SDS011;11299;43.202;27.920;2023-04-25T02:47:42;26.92;;;9.50;;
22260;SDS011;11299;43.202;27.920;2023-04-25T02:50:07;22.48;;;10.55;;
22260;SDS011;11299;43.202;27.920;2023-04-25T02:52:33;18.33;;;8.05;;
22260;SDS011;11299;43.202;27.920;2023-04-25T02:54:58;20.92;;;8.73;;
22260;SDS011;11299;43.202;27.920;2023-04-25T02:57:23;21.00;;;8.70;;
22260;SDS011;11299;43.202;27.920;2023-04-25T02:59:49;20.05;;;7.93;;
22260;SDS011;11299;43.202;27.920;2023-04-25T03:02:14;22.45;;;9.57;;
22260;SDS011;11299;43.202;27.920;2023-04-25T03:04:40;15.13;;;8.15;;
22260;SDS011;11299;43.202;27.920;2023-04-25T03:07:05;21.55;;;9.93;;
22260;SDS011;11299;43.202;27.920;2023-04-25T03:09:31;25.80;;;9.60;;
22260;SDS011;11299;43.202;27.920;2023-04-25T03:11:57;22.13;;;9.45;;
22260;SDS011;11299;43.202;27.920;2023-04-25T03:14:22;24.52;;;8.65;;
22260;SDS011;11299;43.202;27.920;2023-04-25T03:16:48;21.38;;;11.27;;
22260;SDS011;11299;43.202;27.920;2023-04-25T03:19:13;19.92;;;9.90;;
22260;SDS011;11299;43.202;27.920;2023-04-25T03:21:41;22.23;;;10.63;;
22260;SDS011;11299;43.202;27.920;2023-04-25T03:24:06;19.63;;;10.20;;
22260;SDS011;11299;43.202;27.920;2023-04-25T03:26:32;22.15;;;10.02;;
22260;SDS011;11299;43.202;27.920;2023-04-25T03:28:57;26.98;;;13.15;;
22260;SDS011;11299;43.202;27.920;2023-04-25T03:31:23;21.80;;;9.02;;
22260;SDS011;11299;43.202;27.920;2023-04-25T03:33:48;24.67;;;12.95;;
22260;SDS011;11299;43.202;27.920;2023-04-25T03:36:13;25.23;;;10.57;;
22260;SDS011;11299;43.202;27.920;2023-04-25T03:38:39;25.88;;;10.38;;
22260;SDS011;11299;43.202;27.920;2023-04-25T03:41:06;18.25;;;8.77;;
22260;SDS011;11299;43.202;27.920;2023-04-25T03:43:32;21.98;;;9.05;;
22260;SDS011;11299;43.202;27.920;2023-04-25T03:45:57;24.15;;;12.50;;
22260;SDS011;11299;43.202;27.920;2023-04-25T03:48:23;25.63;;;11.30;;
22260;SDS011;11299;43.202;27.920;2023-04-25T03:50:50;22.60;;;10.52;;
22260;SDS011;11299;43.202;27.920;2023-04-25T03:53:16;23.10;;;11.98;;
22260;SDS011;11299;43.202;27.920;2023-04-25T03:55:42;29.45;;;11.00;;
22260;SDS011;11299;43.202;27.920;2023-04-25T03:58:07;34.88;;;11.73;;
22260;SDS011;11299;43.202;27.920;2023-04-25T04:00:34;26.55;;;12.45;;
22260;SDS011;11299;43.202;27.920;2023-04-25T04:02:59;28.77;;;15.05;;
22260;SDS011;11299;43.202;27.920;2023-04-25T04:05:25;34.38;;;12.75;;
22260;SDS011;11299;43.202;27.920;2023-04-25T04:07:50;26.02;;;12.35;;
22260;SDS011;11299;43.202;27.920;2023-04-25T04:10:16;26.88;;;11.77;;
22260;SDS011;11299;43.202;27.920;2023-04-25T04:12:41;28.05;;;13.18;;
22260;SDS011;11299;43.202;27.920;2023-04-25T04:15:07;22.52;;;12.55;;
22260;SDS011;11299;43.202;27.920;2023-04-25T04:17:33;30.38;;;13.38;;
22260;SDS011;11299;43.202;27.920;2023-04-25T04:19:58;20.67;;;10.50;;
22260;SDS011;11299;43.202;27.920;2023-04-25T04:22:24;43.95;;;13.27;;
22260;SDS011;11299;43.202;27.920;2023-04-25T04:24:50;29.77;;;10.80;;
22260;SDS011;11299;43.202;27.920;2023-04-25T04:27:18;25.08;;;10.38;;
22260;SDS011;11299;43.202;27.920;2023-04-25T04:29:44;27.30;;;10.68;;
22260;SDS011;11299;43.202;27.920;2023-04-25T04:32:11;22.80;;;10.45;;
22260;SDS011;11299;43.202;27.920;2023-04-25T04:34:38;32.85;;;11.10;;
22260;SDS011;11299;43.202;27.920;2023-04-25T04:37:05;28.42;;;10.57;;
22260;SDS011;11299;43.202;27.920;2023-04-25T04:39:32;31.95;;;11.25;;
22260;SDS011;11299;43.202;27.920;2023-04-25T04:41:58;26.88;;;11.15;;
22260;SDS011;11299;43.202;27.920;2023-04-25T04:44:24;23.52;;;10.10;;
22260;SDS011;11299;43.202;27.920;2023-04-25T04:46:50;28.08;;;11.55;;
22260;SDS011;11299;43.202;27.920;2023-04-25T04:49:16;20.98;;;9.27;;
22260;SDS011;11299;43.202;27.920;2023-04-25T04:51:42;25.05;;;9.55;;
22260;SDS011;11299;43.202;27.920;2023-04-25T04:54:09;27.17;;;10.18;;
22260;SDS011;11299;43.202;27.920;2023-04-25T04:56:35;27.95;;;10.02;;
22260;SDS011;11299;43.202;27.920;2023-04-25T04:59:00;24.95;;;9.23;;
22260;SDS011;11299;43.202;27.920;2023-04-25T05:01:27;24.83;;;9.27;;
22260;SDS011;11299;43.202;27.920;2023-04-25T05:03:54;21.02;;;9.63;;
22260;SDS011;11299;43.202;27.920;2023-04-25T05:06:25;23.13;;;9.27;;
22260;SDS011;11299;43.202;27.920;2023-04-25T05:08:50;29.63;;;9.98;;
22260;SDS011;11299;43.202;27.920;2023-04-25T05:11:16;21.30;;;9.38;;
22260;SDS011;11299;43.202;27.920;2023-04-25T05:13:41;20.77;;;9.57;;
22260;SDS011;11299;43.202;27.920;2023-04-25T05:16:07;22.10;;;9.80;;
22260;SDS011;11299;43.202;27.920;2023-04-25T05:18:32;19.40;;;9.80;;
22260;SDS011;11299;43.202;27.920;2023-04-25T05:20:57;24.67;;;9.55;;
22260;SDS011;11299;43.202;27.920;2023-04-25T05:23:23;21.45;;;10.07;;
22260;SDS011;11299;43.202;27.920;2023-04-25T05:25:48;22.25;;;9.52;;
22260;SDS011;11299;43.202;27.920;2023-04-25T05:28:14;16.77;;;9.07;;
22260;SDS011;11299;43.202;27.920;2023-04-25T05:30:39;23.98;;;8.95;;
22260;SDS011;11299;43.202;27.920;2023-04-25T05:33:05;25.27;;;9.00;;
22260;SDS011;11299;43.202;27.920;2023-04-25T05:35:30;20.27;;;7.55;;
22260;SDS011;11299;43.202;27.920;2023-04-25T05:37:56;18.67;;;8.10;;
22260;SDS011;11299;43.202;27.920;2023-04-25T05:40:21;18.92;;;8.40;;
22260;SDS011;11299;43.202;27.920;2023-04-25T05:42:46;18.52;;;7.78;;
22260;SDS011;11299;43.202;27.920;2023-04-25T05:45:12;16.50;;;7.72;;
22260;SDS011;11299;43.202;27.920;2023-04-25T05:47:38;15.55;;;6.80;;
22260;SDS011;11299;43.202;27.920;2023-04-25T05:50:03;16.42;;;7.78;;
22260;SDS011;11299;43.202;27.920;2023-04-25T05:52:29;17.45;;;8.02;;
22260;SDS011;11299;43.202;27.920;2023-04-25T05:54:54;14.68;;;7.28;;
22260;SDS011;11299;43.202;27.920;2023-04-25T05:57:23;15.55;;;7.10;;
22260;SDS011;11299;43.202;27.920;2023-04-25T05:59:50;17.60;;;7.65;;
22260;SDS011;11299;43.202;27.920;2023-04-25T06:02:16;20.15;;;8.48;;
22260;SDS011;11299;43.202;27.920;2023-04-25T06:04:42;17.92;;;7.72;;
22260;SDS011;11299;43.202;27.920;2023-04-25T06:07:08;14.77;;;7.80;;
22260;SDS011;11299;43.202;27.920;2023-04-25T06:09:33;20.35;;;8.52;;
22260;SDS011;11299;43.202;27.920;2023-04-25T06:11:59;12.38;;;6.85;;
22260;SDS011;11299;43.202;27.920;2023-04-25T06:14:26;19.38;;;7.85;;
22260;SDS011;11299;43.202;27.920;2023-04-25T06:16:51;14.65;;;7.20;;
22260;SDS011;11299;43.202;27.920;2023-04-25T06:19:17;14.15;;;7.25;;
22260;SDS011;11299;43.202;27.920;2023-04-25T06:21:43;14.35;;;7.40;;
22260;SDS011;11299;43.202;27.920;2023-04-25T06:24:09;22.20;;;8.98;;
22260;SDS011;11299;43.202;27.920;2023-04-25T06:26:34;15.95;;;8.45;;
22260;SDS011;11299;43.202;27.920;2023-04-25T06:29:00;14.23;;;7.53;;
22260;SDS011;11299;43.202;27.920;2023-04-25T06:31:25;21.92;;;8.00;;
22260;SDS011;11299;43.202;27.920;2023-04-25T06:33:51;17.00;;;8.05;;
22260;SDS011;11299;43.202;27.920;2023-04-25T06:36:19;16.30;;;7.35;;
22260;SDS011;11299;43.202;27.920;2023-04-25T06:38:50;15.45;;;8.38;;
22260;SDS011;11299;43.202;27.920;2023-04-25T06:41:18;18.50;;;7.47;;
22260;SDS011;11299;43.202;27.920;2023-04-25T06:43:44;18.45;;;7.35;;
22260;SDS011;11299;43.202;27.920;2023-04-25T06:46:09;17.38;;;7.78;;
22260;SDS011;11299;43.202;27.920;2023-04-25T06:48:35;15.85;;;7.78;;
22260;SDS011;11299;43.202;27.920;2023-04-25T06:51:00;12.88;;;7.38;;
22260;SDS011;11299;43.202;27.920;2023-04-25T06:53:26;16.95;;;7.15;;
22260;SDS011;11299;43.202;27.920;2023-04-25T06:55:51;20.33;;;8.13;;
22260;SDS011;11299;43.202;27.920;2023-04-25T06:58:17;20.77;;;7.78;;
22260;SDS011;11299;43.202;27.920;2023-04-25T07:00:43;24.58;;;8.40;;
22260;SDS011;11299;43.202;27.920;2023-04-25T07:03:08;17.13;;;8.32;;
22260;SDS011;11299;43.202;27.920;2023-04-25T07:05:34;15.45;;;8.30;;
22260;SDS011;11299;43.202;27.920;2023-04-25T07:08:00;15.70;;;7.50;;
22260;SDS011;11299;43.202;27.920;2023-04-25T07:10:25;20.00;;;7.43;;
22260;SDS011;11299;43.202;27.920;2023-04-25T07:12:51;12.48;;;6.85;;
22260;SDS011;11299;43.202;27.920;2023-04-25T07:15:17;19.25;;;7.80;;
22260;SDS011;11299;43.202;27.920;2023-04-25T07:17:42;18.85;;;7.85;;
22260;SDS011;11299;43.202;27.920;2023-04-25T07:20:08;13.73;;;7.30;;
22260;SDS011;11299;43.202;27.920;2023-04-25T07:22:34;15.70;;;7.57;;
22260;SDS011;11299;43.202;27.920;2023-04-25T07:25:00;14.20;;;7.90;;
22260;SDS011;11299;43.202;27.920;2023-04-25T07:27:25;14.60;;;8.07;;
22260;SDS011;11299;43.202;27.920;2023-04-25T07:29:51;18.33;;;7.43;;
22260;SDS011;11299;43.202;27.920;2023-04-25T07:32:16;19.17;;;7.70;;
22260;SDS011;11299;43.202;27.920;2023-04-25T07:34:42;13.93;;;7.53;;
22260;SDS011;11299;43.202;27.920;2023-04-25T07:37:07;16.67;;;8.05;;
22260;SDS011;11299;43.202;27.920;2023-04-25T07:39:32;14.15;;;7.95;;
22260;SDS011;11299;43.202;27.920;2023-04-25T07:41:58;13.10;;;7.65;;
22260;SDS011;11299;43.202;27.920;2023-04-25T07:44:24;15.45;;;8.02;;
22260;SDS011;11299;43.202;27.920;2023-04-25T07:46:50;15.48;;;7.53;;
22260;SDS011;11299;43.202;27.920;2023-04-25T07:49:16;12.32;;;7.57;;
22260;SDS011;11299;43.202;27.920;2023-04-25T07:51:41;15.65;;;8.07;;
22260;SDS011;11299;43.202;27.920;2023-04-25T07:54:09;16.20;;;7.78;;
22260;SDS011;11299;43.202;27.920;2023-04-25T07:56:34;15.85;;;8.82;;
22260;SDS011;11299;43.202;27.920;2023-04-25T07:59:00;18.90;;;8.00;;
22260;SDS011;11299;43.202;27.920;2023-04-25T08:01:26;14.05;;;8.63;;
22260;SDS011;11299;43.202;27.920;2023-04-25T08:03:52;13.93;;;8.57;;
22260;SDS011;11299;43.202;27.920;2023-04-25T08:06:18;15.32;;;8.27;;
22260;SDS011;11299;43.202;27.920;2023-04-25T08:08:43;14.82;;;9.07;;
22260;SDS011;11299;43.202;27.920;2023-04-25T08:11:09;16.98;;;9.25;;
22260;SDS011;11299;43.202;27.920;2023-04-25T08:13:35;16.55;;;8.90;;
22260;SDS011;11299;43.202;27.920;2023-04-25T08:16:00;16.38;;;9.10;;
22260;SDS011;11299;43.202;27.920;2023-04-25T08:18:26;16.48;;;9.82;;
22260;SDS011;11299;43.202;27.920;2023-04-25T08:20:51;14.48;;;8.63;;
22260;SDS011;11299;43.202;27.920;2023-04-25T08:23:17;15.75;;;8.65;;
22260;SDS011;11299;43.202;27.920;2023-04-25T08:25:42;15.98;;;8.38;;
22260;SDS011;11299;43.202;27.920;2023-04-25T08:28:08;21.13;;;8.88;;
22260;SDS011;11299;43.202;27.920;2023-04-25T08:30:34;18.58;;;9.70;;
22260;SDS011;11299;43.202;27.920;2023-04-25T08:33:00;17.60;;;8.93;;
22260;SDS011;11299;43.202;27.920;2023-04-25T08:35:25;15.23;;;8.40;;
22260;SDS011;11299;43.202;27.920;2023-04-25T08:37:51;18.65;;;8.73;;
22260;SDS011;11299;43.202;27.920;2023-04-25T08:40:16;17.55;;;8.90;;
22260;SDS011;11299;43.202;27.920;2023-04-25T08:42:42;14.50;;;9.40;;
22260;SDS011;11299;43.202;27.920;2023-04-25T08:45:08;17.30;;;9.13;;
22260;SDS011;11299;43.202;27.920;2023-04-25T08:47:34;14.25;;;8.77;;
22260;SDS011;11299;43.202;27.920;2023-04-25T08:50:03;14.90;;;9.00;;
22260;SDS011;11299;43.202;27.920;2023-04-25T08:52:32;17.48;;;8.73;;
22260;SDS011;11299;43.202;27.920;2023-04-25T08:55:02;20.05;;;9.55;;
22260;SDS011;11299;43.202;27.920;2023-04-25T08:57:29;15.80;;;8.10;;
22260;SDS011;11299;43.202;27.920;2023-04-25T08:59:56;14.25;;;8.02;;
22260;SDS011;11299;43.202;27.920;2023-04-25T09:02:23;13.90;;;8.00;;
22260;SDS011;11299;43.202;27.920;2023-04-25T09:04:50;15.77;;;8.80;;
22260;SDS011;11299;43.202;27.920;2023-04-25T09:07:15;15.88;;;8.90;;
22260;SDS011;11299;43.202;27.920;2023-04-25T09:09:43;14.57;;;8.52;;
22260;SDS011;11299;43.202;27.920;2023-04-25T09:12:09;12.88;;;7.57;;
22260;SDS011;11299;43.202;27.920;2023-04-25T09:14:35;14.18;;;7.50;;
22260;SDS011;11299;43.202;27.920;2023-04-25T09:17:01;17.02;;;8.55;;
22260;SDS011;11299;43.202;27.920;2023-04-25T09:21:57;14.05;;;7.40;;
22260;SDS011;11299;43.202;27.920;2023-04-25T09:24:31;10.77;;;6.97;;
22260;SDS011;11299;43.202;27.920;2023-04-25T09:27:04;14.40;;;7.28;;
22260;SDS011;11299;43.202;27.920;2023-04-25T09:29:35;13.70;;;7.22;;
22260;SDS011;11299;43.202;27.920;2023-04-25T09:32:16;15.95;;;8.07;;
22260;SDS011;11299;43.202;27.920;2023-04-25T09:34:42;12.27;;;6.75;;
22260;SDS011;11299;43.202;27.920;2023-04-25T09:37:10;15.65;;;7.85;;
22260;SDS011;11299;43.202;27.920;2023-04-25T09:39:39;13.38;;;7.07;;
22260;SDS011;11299;43.202;27.920;2023-04-25T09:42:05;15.40;;;7.78;;
22260;SDS011;11299;43.202;27.920;2023-04-25T09:44:31;12.43;;;6.78;;
22260;SDS011;11299;43.202;27.920;2023-04-25T09:46:57;10.50;;;6.57;;
22260;SDS011;11299;43.202;27.920;2023-04-25T09:49:24;11.30;;;6.20;;
22260;SDS011;11299;43.202;27.920;2023-04-25T09:51:58;10.88;;;6.20;;
22260;SDS011;11299;43.202;27.920;2023-04-25T09:54:25;12.07;;;5.93;;
22260;SDS011;11299;43.202;27.920;2023-04-25T09:56:52;12.65;;;5.75;;
22260;SDS011;11299;43.202;27.920;2023-04-25T09:59:21;16.02;;;6.70;;
22260;SDS011;11299;43.202;27.920;2023-04-25T10:01:48;11.55;;;5.35;;
22260;SDS011;11299;43.202;27.920;2023-04-25T10:04:22;13.43;;;6.15;;
22260;SDS011;11299;43.202;27.920;2023-04-25T10:09:17;9.13;;;6.00;;
22260;SDS011;11299;43.202;27.920;2023-04-25T10:11:46;8.80;;;5.50;;
22260;SDS011;11299;43.202;27.920;2023-04-25T10:14:15;9.88;;;5.18;;
22260;SDS011;11299;43.202;27.920;2023-04-25T10:16:41;12.23;;;5.93;;
22260;SDS011;11299;43.202;27.920;2023-04-25T10:19:09;11.02;;;5.43;;
22260;SDS011;11299;43.202;27.920;2023-04-25T10:21:35;10.93;;;5.57;;
22260;SDS011;11299;43.202;27.920;2023-04-25T10:24:16;10.23;;;5.10;;
22260;SDS011;11299;43.202;27.920;2023-04-25T10:26:42;12.77;;;5.20;;
22260;SDS011;11299;43.202;27.920;2023-04-25T10:29:08;12.40;;;5.40;;
22260;SDS011;11299;43.202;27.920;2023-04-25T10:31:37;8.73;;;5.20;;
22260;SDS011;11299;43.202;27.920;2023-04-25T10:34:10;7.00;;;4.70;;
22260;SDS011;11299;43.202;27.920;2023-04-25T10:36:35;8.75;;;5.28;;
22260;SDS011;11299;43.202;27.920;2023-04-25T10:39:03;9.90;;;5.07;;
22260;SDS011;11299;43.202;27.920;2023-04-25T10:42:07;10.25;;;4.60;;
22260;SDS011;11299;43.202;27.920;2023-04-25T10:44:30;11.35;;;5.15;;
22260;SDS011;11299;43.202;27.920;2023-04-25T10:47:00;15.15;;;4.65;;
22260;SDS011;11299;43.202;27.920;2023-04-25T10:49:31;10.68;;;5.00;;
22260;SDS011;11299;43.202;27.920;2023-04-25T10:52:24;10.23;;;5.50;;
22260;SDS011;11299;43.202;27.920;2023-04-25T10:54:53;11.52;;;5.60;;
22260;SDS011;11299;43.202;27.920;2023-04-25T10:57:30;9.70;;;5.80;;
22260;SDS011;11299;43.202;27.920;2023-04-25T11:00:13;7.97;;;4.97;;
22260;SDS011;11299;43.202;27.920;2023-04-25T11:05:10;14.15;;;6.07;;
22260;SDS011;11299;43.202;27.920;2023-04-25T11:07:45;8.05;;;5.78;;
22260;SDS011;11299;43.202;27.920;2023-04-25T11:10:16;9.52;;;5.50;;
22260;SDS011;11299;43.202;27.920;2023-04-25T11:12:42;10.40;;;6.40;;
22260;SDS011;11299;43.202;27.920;2023-04-25T11:15:09;9.82;;;6.00;;
22260;SDS011;11299;43.202;27.920;2023-04-25T11:17:34;10.23;;;6.00;;
22260;SDS011;11299;43.202;27.920;2023-04-25T11:20:00;11.38;;;5.40;;
22260;SDS011;11299;43.202;27.920;2023-04-25T11:22:26;13.70;;;6.25;;
22260;SDS011;11299;43.202;27.920;2023-04-25T11:24:53;11.35;;;5.82;;
22260;SDS011;11299;43.202;27.920;2023-04-25T11:27:18;11.52;;;5.78;;
22260;SDS011;11299;43.202;27.920;2023-04-25T11:29:46;12.13;;;6.35;;
22260;SDS011;11299;43.202;27.920;2023-04-25T11:32:14;12.05;;;5.45;;
22260;SDS011;11299;43.202;27.920;2023-04-25T11:34:42;9.98;;;5.75;;
22260;SDS011;11299;43.202;27.920;2023-04-25T11:37:08;9.52;;;5.65;;
22260;SDS011;11299;43.202;27.920;2023-04-25T11:39:34;12.88;;;5.60;;
22260;SDS011;11299;43.202;27.920;2023-04-25T11:42:00;8.60;;;5.32;;
22260;SDS011;11299;43.202;27.920;2023-04-25T11:44:26;9.60;;;5.25;;
22260;SDS011;11299;43.202;27.920;2023-04-25T11:46:53;9.90;;;5.30;;
22260;SDS011;11299;43.202;27.920;2023-04-25T11:49:18;9.02;;;4.95;;
22260;SDS011;11299;43.202;27.920;2023-04-25T11:51:45;10.38;;;5.03;;
22260;SDS011;11299;43.202;27.920;2023-04-25T11:54:12;8.77;;;5.00;;
22260;SDS011;11299;43.202;27.920;2023-04-25T11:56:41;6.97;;;4.93;;
22260;SDS011;11299;43.202;27.920;2023-04-25T11:59:07;8.52;;;5.22;;
22260;SDS011;11299;43.202;27.920;2023-04-25T12:01:37;8.27;;;5.13;;
22260;SDS011;11299;43.202;27.920;2023-04-25T12:04:17;8.93;;;4.95;;
22260;SDS011;11299;43.202;27.920;2023-04-25T12:06:50;7.60;;;4.13;;
22260;SDS011;11299;43.202;27.920;2023-04-25T12:09:18;7.18;;;4.78;;
22260;SDS011;11299;43.202;27.920;2023-04-25T12:14:20;8.32;;;4.72;;
22260;SDS011;11299;43.202;27.920;2023-04-25T12:16:49;8.32;;;4.68;;
22260;SDS011;11299;43.202;27.920;2023-04-25T12:19:16;6.65;;;4.53;;
22260;SDS011;11299;43.202;27.920;2023-04-25T12:21:45;9.18;;;5.05;;
22260;SDS011;11299;43.202;27.920;2023-04-25T12:26:51;6.57;;;4.60;;
22260;SDS011;11299;43.202;27.920;2023-04-25T12:29:23;10.65;;;4.70;;
22260;SDS011;11299;43.202;27.920;2023-04-25T12:31:50;8.30;;;4.63;;
22260;SDS011;11299;43.202;27.920;2023-04-25T12:34:16;8.93;;;5.00;;
22260;SDS011;11299;43.202;27.920;2023-04-25T12:36:45;11.98;;;5.15;;
22260;SDS011;11299;43.202;27.920;2023-04-25T12:39:18;9.02;;;5.28;;
22260;SDS011;11299;43.202;27.920;2023-04-25T12:41:47;13.65;;;5.43;;
22260;SDS011;11299;43.202;27.920;2023-04-25T12:44:13;13.02;;;5.60;;
22260;SDS011;11299;43.202;27.920;2023-04-25T12:46:39;10.18;;;5.60;;
22260;SDS011;11299;43.202;27.920;2023-04-25T12:49:08;11.77;;;5.70;;
22260;SDS011;11299;43.202;27.920;2023-04-25T12:51:34;11.25;;;6.35;;
22260;SDS011;11299;43.202;27.920;2023-04-25T12:54:01;9.70;;;6.18;;
22260;SDS011;11299;43.202;27.920;2023-04-25T12:56:28;11.02;;;6.47;;
22260;SDS011;11299;43.202;27.920;2023-04-25T12:58:54;11.55;;;6.20;;
22260;SDS011;11299;43.202;27.920;2023-04-25T13:01:20;11.35;;;6.60;;
22260;SDS011;11299;43.202;27.920;2023-04-25T13:03:46;10.38;;;6.15;;
22260;SDS011;11299;43.202;27.920;2023-04-25T13:06:11;8.38;;;6.45;;
22260;SDS011;11299;43.202;27.920;2023-04-25T13:08:38;8.63;;;6.70;;
22260;SDS011;11299;43.202;27.920;2023-04-25T13:11:04;8.10;;;6.10;;
22260;SDS011;11299;43.202;27.920;2023-04-25T13:13:30;8.98;;;6.97;;
22260;SDS011;11299;43.202;27.920;2023-04-25T13:15:56;10.38;;;7.55;;
22260;SDS011;11299;43.202;27.920;2023-04-25T13:18:22;10.48;;;7.57;;
22260;SDS011;11299;43.202;27.920;2023-04-25T13:20:51;11.90;;;7.45;;
22260;SDS011;11299;43.202;27.920;2023-04-25T13:23:18;11.02;;;7.30;;
22260;SDS011;11299;43.202;27.920;2023-04-25T13:25:44;12.07;;;7.45;;
22260;SDS011;11299;43.202;27.920;2023-04-25T13:28:09;15.10;;;8.32;;
22260;SDS011;11299;43.202;27.920;2023-04-25T13:30:35;11.57;;;7.40;;
22260;SDS011;11299;43.202;27.920;2023-04-25T13:33:00;14.73;;;7.68;;
22260;SDS011;11299;43.202;27.920;2023-04-25T13:35:28;10.23;;;8.45;;
22260;SDS011;11299;43.202;27.920;2023-04-25T13:37:55;11.73;;;8.70;;
22260;SDS011;11299;43.202;27.920;2023-04-25T13:40:21;12.30;;;9.68;;
22260;SDS011;11299;43.202;27.920;2023-04-25T13:42:47;15.30;;;8.88;;
22260;SDS011;11299;43.202;27.920;2023-04-25T13:45:12;15.25;;;8.93;;
22260;SDS011;11299;43.202;27.920;2023-04-25T13:47:38;19.77;;;10.40;;
22260;SDS011;11299;43.202;27.920;2023-04-25T13:50:04;15.45;;;9.75;;
22260;SDS011;11299;43.202;27.920;2023-04-25T13:52:33;14.32;;;9.85;;
22260;SDS011;11299;43.202;27.920;2023-04-25T13:54:59;16.90;;;10.43;;
22260;SDS011;11299;43.202;27.920;2023-04-25T13:57:24;15.75;;;11.05;;
22260;SDS011;11299;43.202;27.920;2023-04-25T13:59:50;18.77;;;10.80;;
22260;SDS011;11299;43.202;27.920;2023-04-25T14:02:16;14.32;;;11.05;;
22260;SDS011;11299;43.202;27.920;2023-04-25T14:04:42;17.00;;;11.25;;
22260;SDS011;11299;43.202;27.920;2023-04-25T14:07:08;16.48;;;9.98;;
22260;SDS011;11299;43.202;27.920;2023-04-25T14:09:34;18.05;;;10.93;;
22260;SDS011;11299;43.202;27.920;2023-04-25T14:11:59;22.58;;;12.18;;
22260;SDS011;11299;43.202;27.920;2023-04-25T14:14:25;18.83;;;12.40;;
22260;SDS011;11299;43.202;27.920;2023-04-25T14:16:51;19.48;;;11.38;;
22260;SDS011;11299;43.202;27.920;2023-04-25T14:19:19;21.67;;;12.02;;
22260;SDS011;11299;43.202;27.920;2023-04-25T14:21:45;17.10;;;12.13;;
22260;SDS011;11299;43.202;27.920;2023-04-25T14:24:11;20.67;;;12.02;;
22260;SDS011;11299;43.202;27.920;2023-04-25T14:26:39;20.42;;;11.15;;
22260;SDS011;11299;43.202;27.920;2023-04-25T14:29:06;17.17;;;11.50;;
22260;SDS011;11299;43.202;27.920;2023-04-25T14:31:32;18.90;;;12.20;;